Time;durP1;ratioP1;P1;durP2;ratioP2;P2;SDS_P1;SDS_P2;PMS_P1;PMS_P2;Temp;Humidity;BMP_temperature;BMP_pressure;BME280_temperature;BME280_humidity;BME280_pressure;Samples;Min_cycle;Max_cycle;Signal;HPM_P1;HPM_P2
2023/09/23 00:02:00;;;;;;;;;;;13.50;69.60;;;;;;4171279;28;19913;-84
2023/09/23 00:04:20;;;;;;;;;;;13.40;69.60;;;;;;4175125;28;19924;-83
2023/09/23 00:06:41;;;;;;;;;;;13.40;69.70;;;;;;4173279;28;19928;-83
2023/09/23 00:09:02;;;;;;;;;;;13.30;69.70;;;;;;4178787;28;20701;-84
2023/09/23 00:11:23;;;;;;;;;;;13.30;69.70;;;;;;4195509;28;19919;-82
2023/09/23 00:13:44;;;;;;;;;;;13.30;69.50;;;;;;4193282;28;19905;-83
2023/09/23 00:16:14;;;;;;;;;;;13.20;69.60;;;;;;4172764;28;19937;-83
2023/09/23 00:18:17;;;;;;;;;;;13.20;69.40;;;;;;4176335;28;20000;-82
2023/09/23 00:20:18;;;;;;;;;;;13.30;69.70;;;;;;4155939;28;19943;-83
2023/09/23 00:22:18;;;;;;;;;;;13.20;69.70;;;;;;4158748;28;19917;-83
2023/09/23 00:24:19;;;;;;;;;;;13.10;69.70;;;;;;4171984;28;20054;-83
2023/09/23 00:26:39;;;;;;;;;;;13.10;70.70;;;;;;4171798;28;19959;-83
2023/09/23 00:29:00;;;;;;;;;;;13.20;70.20;;;;;;4173230;28;19912;-83
2023/09/23 00:31:20;;;;;;;;;;;13.20;70.10;;;;;;4156735;28;19917;-83
2023/09/23 00:33:41;;;;;;;;;;;13.10;70.00;;;;;;4160848;28;19940;-83
2023/09/23 00:36:02;;;;;;;;;;;13.10;70.00;;;;;;4171049;28;19917;-83
2023/09/23 00:38:22;;;;;;;;;;;13.00;70.00;;;;;;4164996;28;19917;-83
2023/09/23 00:40:44;;;;;;;;;;;13.10;70.20;;;;;;4174238;28;19939;-83
2023/09/23 00:42:49;;;;;;;;;;;13.00;70.20;;;;;;4154963;28;20000;-83
2023/09/23 00:44:50;;;;;;;;;;;13.00;69.90;;;;;;4159268;28;19917;-83
2023/09/23 00:46:50;;;;;;;;;;;12.90;69.80;;;;;;4175090;28;19924;-83
2023/09/23 00:48:51;;;;;;;;;;;13.00;70.00;;;;;;4172622;28;20525;-83
2023/09/23 00:50:52;;;;;;;;;;;12.90;70.00;;;;;;4153642;28;19921;-83
2023/09/23 00:52:53;;;;;;;;;;;12.80;70.00;;;;;;4151437;28;19937;-82
2023/09/23 00:54:53;;;;;;;;;;;12.80;70.10;;;;;;4154549;28;19925;-83
2023/09/23 00:56:56;;;;;;;;;;;12.90;70.30;;;;;;4169586;28;19921;-83
2023/09/23 00:58:57;;;;;;;;;;;12.80;70.30;;;;;;4151082;28;19917;-83
2023/09/23 01:00:59;;;;;;;;;;;12.80;70.40;;;;;;4153426;28;19922;-84
2023/09/23 01:03:00;;;;;;;;;;;12.70;70.30;;;;;;4147912;28;22070;-84
2023/09/23 01:05:04;;;;;;;;;;;12.70;70.20;;;;;;4153948;28;19925;-83
2023/09/23 01:07:27;;;;;;;;;;;12.70;70.30;;;;;;4167510;28;19917;-82
2023/09/23 01:09:48;;;;;;;;;;;12.70;70.30;;;;;;4169511;28;19916;-82
2023/09/23 01:11:51;;;;;;;;;;;12.70;70.50;;;;;;4164024;28;19913;-83
2023/09/23 01:14:11;;;;;;;;;;;12.70;70.50;;;;;;4170556;28;19912;-83
2023/09/23 01:16:32;;;;;;;;;;;12.60;70.50;;;;;;4153847;28;19924;-83
2023/09/23 01:18:53;;;;;;;;;;;12.70;70.50;;;;;;4153491;28;20003;-83
2023/09/23 01:21:14;;;;;;;;;;;12.60;70.60;;;;;;4167853;28;20003;-83
2023/09/23 01:23:36;;;;;;;;;;;12.60;70.70;;;;;;4154544;28;19921;-82
2023/09/23 01:25:58;;;;;;;;;;;12.70;70.70;;;;;;4170201;28;19917;-83
2023/09/23 01:28:18;;;;;;;;;;;12.60;70.70;;;;;;4170666;28;19916;-82
2023/09/23 01:30:45;;;;;;;;;;;12.60;70.60;;;;;;4173797;28;19944;-83
2023/09/23 01:33:10;;;;;;;;;;;12.60;70.80;;;;;;4168063;28;20256;-83
2023/09/23 01:35:11;;;;;;;;;;;12.60;70.90;;;;;;4167292;28;20255;-83
2023/09/23 01:37:11;;;;;;;;;;;12.60;71.00;;;;;;4187564;28;19912;-82
2023/09/23 01:39:13;;;;;;;;;;;12.60;71.10;;;;;;4187487;28;19924;-82
2023/09/23 01:41:15;;;;;;;;;;;12.50;71.10;;;;;;4170269;28;19916;-83
2023/09/23 01:43:35;;;;;;;;;;;12.60;71.20;;;;;;4165979;28;19917;-83
2023/09/23 01:46:02;;;;;;;;;;;12.60;71.20;;;;;;4170101;28;19913;-84
2023/09/23 01:48:23;;;;;;;;;;;12.60;71.90;;;;;;4171719;28;19934;-83
2023/09/23 01:50:24;;;;;;;;;;;12.60;71.40;;;;;;4154630;28;20047;-83
2023/09/23 01:52:45;;;;;;;;;;;12.70;71.60;;;;;;4174046;28;19998;-83
2023/09/23 01:55:06;;;;;;;;;;;12.60;71.50;;;;;;4174300;28;19912;-83
2023/09/23 01:57:26;;;;;;;;;;;12.60;71.60;;;;;;4155944;28;20037;-83
2023/09/23 01:59:40;;;;;;;;;;;12.70;72.40;;;;;;4155782;28;20015;-83
2023/09/23 02:02:04;;;;;;;;;;;12.60;71.90;;;;;;4168150;28;19917;-83
2023/09/23 02:04:24;;;;;;;;;;;12.70;71.80;;;;;;4164724;28;20386;-82
2023/09/23 02:06:46;;;;;;;;;;;12.70;72.20;;;;;;4156174;28;19921;-83
2023/09/23 02:09:09;;;;;;;;;;;12.70;71.80;;;;;;4156345;28;19917;-83
2023/09/23 02:11:30;;;;;;;;;;;12.70;72.00;;;;;;4168232;28;19912;-82
2023/09/23 02:13:51;;;;;;;;;;;12.70;71.90;;;;;;4155633;28;19940;-82
2023/09/23 02:16:08;;;;;;;;;;;12.80;72.00;;;;;;4136146;28;19921;-82
2023/09/23 02:18:28;;;;;;;;;;;12.80;72.10;;;;;;4158345;28;19999;-83
2023/09/23 02:20:49;;;;;;;;;;;12.80;72.30;;;;;;4159607;28;20318;-82
2023/09/23 02:23:11;;;;;;;;;;;12.80;72.20;;;;;;4173909;28;19971;-83
2023/09/23 02:25:31;;;;;;;;;;;12.80;72.20;;;;;;4162680;28;19917;-83
2023/09/23 02:27:32;;;;;;;;;;;12.80;72.20;;;;;;4160916;28;19921;-82
2023/09/23 02:29:33;;;;;;;;;;;12.90;72.30;;;;;;4177515;28;19916;-83
2023/09/23 02:31:36;;;;;;;;;;;12.80;72.20;;;;;;4153962;28;20054;-82
2023/09/23 02:33:36;;;;;;;;;;;12.80;72.10;;;;;;4161330;28;19985;-82
2023/09/23 02:35:37;;;;;;;;;;;12.90;72.10;;;;;;4176361;28;19921;-81
2023/09/23 02:37:38;;;;;;;;;;;12.90;72.20;;;;;;4178087;28;20143;-82
2023/09/23 02:39:40;;;;;;;;;;;12.90;72.40;;;;;;4172678;28;20533;-82
2023/09/23 02:41:42;;;;;;;;;;;12.80;72.80;;;;;;4155869;28;20374;-83
2023/09/23 02:43:45;;;;;;;;;;;12.90;72.90;;;;;;4174524;28;20678;-82
2023/09/23 02:45:49;;;;;;;;;;;13.00;72.70;;;;;;4151220;28;19917;-82
2023/09/23 02:47:49;;;;;;;;;;;12.90;72.50;;;;;;4176453;28;20375;-82
2023/09/23 02:50:10;;;;;;;;;;;13.00;73.10;;;;;;4157278;28;19964;-81
2023/09/23 02:52:31;;;;;;;;;;;12.90;72.60;;;;;;4177604;28;19927;-83
2023/09/23 02:54:37;;;;;;;;;;;12.90;72.50;;;;;;4159121;28;19924;-83
2023/09/23 02:56:57;;;;;;;;;;;12.90;72.50;;;;;;4171399;28;19995;-82
2023/09/23 02:59:26;;;;;;;;;;;12.90;72.50;;;;;;4173341;28;19920;-82
2023/09/23 03:01:51;;;;;;;;;;;12.90;72.60;;;;;;4172890;28;19917;-81
2023/09/23 03:04:23;;;;;;;;;;;12.90;72.60;;;;;;4166578;28;19927;-82
2023/09/23 03:06:49;;;;;;;;;;;12.90;72.50;;;;;;4171945;28;19912;-82
2023/09/23 03:09:10;;;;;;;;;;;13.00;72.40;;;;;;4160194;28;20470;-82
2023/09/23 03:11:37;;;;;;;;;;;13.00;72.40;;;;;;4158783;28;19921;-82
2023/09/23 03:13:58;;;;;;;;;;;13.00;72.50;;;;;;4157617;28;19921;-82
2023/09/23 03:16:28;;;;;;;;;;;13.00;72.40;;;;;;4171167;28;20018;-82
2023/09/23 03:19:09;;;;;;;;;;;13.10;72.70;;;;;;4172919;28;19921;-82
2023/09/23 03:21:30;;;;;;;;;;;13.00;72.70;;;;;;4171543;28;19956;-82
2023/09/23 03:23:50;;;;;;;;;;;13.00;72.60;;;;;;4173005;28;19996;-83
2023/09/23 03:25:52;;;;;;;;;;;13.00;72.60;;;;;;4166529;28;19924;-82
2023/09/23 03:27:55;;;;;;;;;;;13.00;72.80;;;;;;4157217;28;19921;-82
2023/09/23 03:29:57;;;;;;;;;;;13.00;72.80;;;;;;4174843;28;19974;-82
2023/09/23 03:32:18;;;;;;;;;;;13.00;72.80;;;;;;4173481;28;19916;-82
2023/09/23 03:34:39;;;;;;;;;;;13.00;73.50;;;;;;4173722;28;20380;-82
2023/09/23 03:36:56;;;;;;;;;;;13.10;73.40;;;;;;4173709;28;19921;-82
2023/09/23 03:39:17;;;;;;;;;;;13.00;73.10;;;;;;4178491;28;19913;-82
2023/09/23 03:41:38;;;;;;;;;;;13.10;72.90;;;;;;4162831;28;19917;-82
2023/09/23 03:43:58;;;;;;;;;;;13.10;72.70;;;;;;4175724;28;19927;-82
2023/09/23 03:46:19;;;;;;;;;;;13.10;72.90;;;;;;4177684;28;20003;-83
2023/09/23 03:48:40;;;;;;;;;;;13.10;72.90;;;;;;4175046;28;19952;-82
2023/09/23 03:51:06;;;;;;;;;;;13.10;72.90;;;;;;4156294;28;19924;-83
2023/09/23 03:53:27;;;;;;;;;;;13.10;73.80;;;;;;4153591;28;19913;-82
2023/09/23 03:55:49;;;;;;;;;;;13.10;73.50;;;;;;4170435;28;19913;-82
2023/09/23 03:58:11;;;;;;;;;;;13.20;74.20;;;;;;4175837;28;19920;-82
2023/09/23 04:00:34;;;;;;;;;;;13.20;74.20;;;;;;4175335;28;19917;-82
2023/09/23 04:02:55;;;;;;;;;;;13.10;73.70;;;;;;4176567;28;20116;-83
2023/09/23 04:05:16;;;;;;;;;;;13.10;73.90;;;;;;4161480;28;19917;-81
2023/09/23 04:07:17;;;;;;;;;;;13.20;73.70;;;;;;4177640;28;19958;-82
2023/09/23 04:09:38;;;;;;;;;;;13.10;74.10;;;;;;4175118;28;20337;-81
2023/09/23 04:12:00;;;;;;;;;;;13.10;74.90;;;;;;4163519;28;19913;-79
2023/09/23 04:14:21;;;;;;;;;;;13.10;74.80;;;;;;4188518;28;19923;-81
2023/09/23 04:16:42;;;;;;;;;;;13.20;74.80;;;;;;4159179;28;19967;-81
2023/09/23 04:19:03;;;;;;;;;;;13.10;74.60;;;;;;4160625;28;19965;-81
2023/09/23 04:21:25;;;;;;;;;;;13.10;74.80;;;;;;4164065;28;20031;-82
2023/09/23 04:23:45;;;;;;;;;;;13.00;74.50;;;;;;4163714;28;19960;-82
2023/09/23 04:26:07;;;;;;;;;;;13.20;74.50;;;;;;4163681;28;19912;-82
2023/09/23 04:28:28;;;;;;;;;;;13.10;74.40;;;;;;4176413;28;20406;-81
2023/09/23 04:30:29;;;;;;;;;;;13.10;74.40;;;;;;4159889;28;19913;-81
2023/09/23 04:32:30;;;;;;;;;;;13.10;74.50;;;;;;4157793;28;20346;-83
2023/09/23 04:34:35;;;;;;;;;;;13.20;75.00;;;;;;4176262;28;19920;-81
2023/09/23 04:36:36;;;;;;;;;;;13.10;75.10;;;;;;4173817;28;20506;-81
2023/09/23 04:38:36;;;;;;;;;;;13.20;75.10;;;;;;4178028;28;19913;-82
2023/09/23 04:40:37;;;;;;;;;;;13.20;74.80;;;;;;4160871;28;19932;-81
2023/09/23 04:42:38;;;;;;;;;;;13.10;74.90;;;;;;4176620;28;20382;-81
2023/09/23 04:44:41;;;;;;;;;;;13.10;75.90;;;;;;4163946;28;19917;-81
2023/09/23 04:46:44;;;;;;;;;;;13.20;75.30;;;;;;4162245;28;19924;-81
2023/09/23 04:48:45;;;;;;;;;;;13.20;75.20;;;;;;4137745;28;20013;-83
2023/09/23 04:50:46;;;;;;;;;;;13.10;75.40;;;;;;4177706;28;19920;-80
2023/09/23 04:53:07;;;;;;;;;;;13.20;75.30;;;;;;4176860;28;19920;-82
2023/09/23 04:55:28;;;;;;;;;;;13.10;75.30;;;;;;4175347;28;20630;-82
2023/09/23 04:57:48;;;;;;;;;;;13.20;75.20;;;;;;4141047;28;19918;-82
2023/09/23 05:00:15;;;;;;;;;;;13.10;75.10;;;;;;4175300;28;20658;-81
2023/09/23 05:02:41;;;;;;;;;;;13.20;75.30;;;;;;4177349;28;20321;-82
2023/09/23 05:05:02;;;;;;;;;;;13.20;75.20;;;;;;4166453;28;20422;-83
2023/09/23 05:07:26;;;;;;;;;;;13.20;75.20;;;;;;4165716;28;20471;-81
2023/09/23 05:09:47;;;;;;;;;;;13.30;75.10;;;;;;4179736;28;21314;-82
2023/09/23 05:11:51;;;;;;;;;;;13.30;75.40;;;;;;4179685;28;19920;-82
2023/09/23 05:14:16;;;;;;;;;;;13.20;74.80;;;;;;4177938;28;20767;-82
2023/09/23 05:16:37;;;;;;;;;;;13.20;74.90;;;;;;4190066;28;19929;-81
2023/09/23 05:18:57;;;;;;;;;;;13.20;74.80;;;;;;4195797;28;19925;-81
2023/09/23 05:21:18;;;;;;;;;;;13.20;75.10;;;;;;4192652;28;19905;-81
2023/09/23 05:23:41;;;;;;;;;;;13.10;75.10;;;;;;4181493;28;20091;-83
2023/09/23 05:26:04;;;;;;;;;;;13.20;75.20;;;;;;4181293;28;19912;-83
2023/09/23 05:28:27;;;;;;;;;;;13.20;75.20;;;;;;4169893;28;20620;-82
2023/09/23 05:30:48;;;;;;;;;;;13.10;75.50;;;;;;4161126;28;20229;-82
2023/09/23 05:33:10;;;;;;;;;;;13.20;75.20;;;;;;4178122;28;20306;-82
2023/09/23 05:35:31;;;;;;;;;;;13.10;74.90;;;;;;4163786;28;20456;-83
2023/09/23 05:37:51;;;;;;;;;;;13.10;74.90;;;;;;4178827;28;19921;-83
2023/09/23 05:40:36;;;;;;;;;;;13.20;75.10;;;;;;4181498;28;20206;-83
2023/09/23 05:42:43;;;;;;;;;;;13.10;75.20;;;;;;4178545;28;19912;-82
2023/09/23 05:44:46;;;;;;;;;;;13.20;74.80;;;;;;4160195;28;19913;-82
2023/09/23 05:46:48;;;;;;;;;;;13.10;74.60;;;;;;4174264;28;19948;-83
2023/09/23 05:48:48;;;;;;;;;;;13.10;75.10;;;;;;4173716;28;19913;-82
2023/09/23 05:50:50;;;;;;;;;;;13.20;75.00;;;;;;4178519;28;19927;-83
2023/09/23 05:52:52;;;;;;;;;;;13.20;74.90;;;;;;4158217;28;19932;-84
2023/09/23 05:54:52;;;;;;;;;;;13.10;74.80;;;;;;4181589;28;19917;-83
2023/09/23 05:56:53;;;;;;;;;;;13.10;74.60;;;;;;4161317;28;19917;-83
2023/09/23 05:58:54;;;;;;;;;;;13.20;74.90;;;;;;4145062;28;19922;-83
2023/09/23 06:00:58;;;;;;;;;;;13.10;75.30;;;;;;4138769;28;19929;-85
2023/09/23 06:02:58;;;;;;;;;;;13.10;75.60;;;;;;4138585;28;19925;-82
2023/09/23 06:05:01;;;;;;;;;;;13.10;75.40;;;;;;4156000;28;19921;-83
2023/09/23 06:07:02;;;;;;;;;;;13.10;75.20;;;;;;4140336;28;19918;-82
2023/09/23 06:17:39;;;;;;;;;;;13.10;75.40;;;;;;4157527;28;20200;-83
2023/09/23 06:19:39;;;;;;;;;;;13.10;75.50;;;;;;4181083;28;19913;-83
2023/09/23 06:21:40;;;;;;;;;;;13.20;75.60;;;;;;4178143;28;19920;-83
2023/09/23 06:26:29;;;;;;;;;;;13.20;75.70;;;;;;4159250;28;19917;-82
2023/09/23 06:28:30;;;;;;;;;;;13.20;75.80;;;;;;4162041;28;19923;-81
2023/09/23 06:30:30;;;;;;;;;;;13.20;76.10;;;;;;4179866;28;19924;-83
2023/09/23 06:32:35;;;;;;;;;;;13.20;76.20;;;;;;4155921;28;19933;-84
2023/09/23 06:34:44;;;;;;;;;;;13.20;76.40;;;;;;4141730;28;19964;-82
2023/09/23 06:36:44;;;;;;;;;;;13.30;76.10;;;;;;4175176;28;19926;-83
2023/09/23 06:38:45;;;;;;;;;;;13.40;76.00;;;;;;4179741;28;19947;-83
2023/09/23 06:40:46;;;;;;;;;;;13.40;76.00;;;;;;4180777;28;19944;-82
2023/09/23 06:42:47;;;;;;;;;;;13.40;75.80;;;;;;4173116;28;19923;-83
2023/09/23 06:44:47;;;;;;;;;;;13.30;75.60;;;;;;4172217;28;19987;-82
2023/09/23 06:46:50;;;;;;;;;;;13.30;75.70;;;;;;4182087;28;19959;-84
2023/09/23 06:48:50;;;;;;;;;;;13.40;75.70;;;;;;4177309;28;20472;-83
2023/09/23 06:50:57;;;;;;;;;;;13.40;76.00;;;;;;4162111;28;20011;-83
2023/09/23 06:52:57;;;;;;;;;;;13.40;76.10;;;;;;4144152;28;20581;-83
2023/09/23 06:54:59;;;;;;;;;;;13.50;76.40;;;;;;4160292;28;19921;-83
2023/09/23 06:56:59;;;;;;;;;;;13.40;76.20;;;;;;4146618;28;19922;-83
2023/09/23 06:59:00;;;;;;;;;;;13.40;76.10;;;;;;4142153;28;19925;-83
2023/09/23 07:01:01;;;;;;;;;;;13.40;76.60;;;;;;4148145;28;20093;-82
2023/09/23 07:03:03;;;;;;;;;;;13.50;76.40;;;;;;4155380;28;19999;-83
2023/09/23 07:05:04;;;;;;;;;;;13.50;76.40;;;;;;4173753;28;20136;-83
2023/09/23 07:07:04;;;;;;;;;;;13.50;76.80;;;;;;4160704;28;19917;-83
2023/09/23 07:09:05;;;;;;;;;;;13.50;77.10;;;;;;4157345;28;19928;-83
2023/09/23 07:11:15;;;;;;;;;;;13.50;77.10;;;;;;4178426;28;20377;-83
2023/09/23 07:13:15;;;;;;;;;;;13.50;77.20;;;;;;4155369;28;19955;-83
2023/09/23 07:15:16;;;;;;;;;;;13.60;77.70;;;;;;4149283;28;21422;-82
2023/09/23 07:17:17;;;;;;;;;;;13.60;77.40;;;;;;4169890;28;19961;-83
2023/09/23 07:19:19;;;;;;;;;;;13.60;77.10;;;;;;4141016;28;19948;-82
2023/09/23 07:21:21;;;;;;;;;;;13.70;76.90;;;;;;4157665;28;19924;-83
2023/09/23 07:23:24;;;;;;;;;;;13.60;76.60;;;;;;4152190;28;19956;-83
2023/09/23 07:25:45;;;;;;;;;;;13.70;77.10;;;;;;4154198;28;19921;-83
2023/09/23 07:27:47;;;;;;;;;;;13.80;77.00;;;;;;4157176;28;19917;-82
2023/09/23 07:30:11;;;;;;;;;;;13.70;77.10;;;;;;4171769;28;20033;-82
2023/09/23 07:32:31;;;;;;;;;;;13.70;77.80;;;;;;4170601;28;19962;-83
2023/09/23 07:34:39;;;;;;;;;;;13.80;77.50;;;;;;4139262;28;19918;-84
2023/09/23 07:37:00;;;;;;;;;;;13.80;77.30;;;;;;4153954;28;20338;-83
2023/09/23 07:39:20;;;;;;;;;;;13.80;77.40;;;;;;4157346;28;20369;-82
2023/09/23 07:41:41;;;;;;;;;;;13.80;77.10;;;;;;4160129;28;19917;-83
2023/09/23 07:44:01;;;;;;;;;;;13.90;77.10;;;;;;4174848;28;20002;-82
2023/09/23 07:46:22;;;;;;;;;;;14.00;77.40;;;;;;4157900;28;20562;-82
2023/09/23 07:48:43;;;;;;;;;;;13.90;77.50;;;;;;4171111;28;19924;-84
2023/09/23 07:51:03;;;;;;;;;;;14.00;77.70;;;;;;4165877;28;19913;-83
2023/09/23 07:53:24;;;;;;;;;;;14.00;77.50;;;;;;4152633;28;20073;-82
2023/09/23 07:55:24;;;;;;;;;;;14.00;77.20;;;;;;4153620;28;19921;-84
2023/09/23 07:57:25;;;;;;;;;;;14.00;77.10;;;;;;4169890;28;19925;-84
2023/09/23 07:59:26;;;;;;;;;;;14.10;77.40;;;;;;4135539;28;20192;-84
2023/09/23 08:01:26;;;;;;;;;;;14.10;77.30;;;;;;4153475;28;19917;-84
2023/09/23 08:03:28;;;;;;;;;;;14.10;77.30;;;;;;4153401;28;19917;-85
2023/09/23 08:05:29;;;;;;;;;;;14.20;76.90;;;;;;4168442;28;19921;-83
2023/09/23 08:07:32;;;;;;;;;;;14.20;76.90;;;;;;4138509;28;20260;-83
2023/09/23 08:09:33;;;;;;;;;;;14.10;77.20;;;;;;4169431;28;19921;-84
2023/09/23 08:11:34;;;;;;;;;;;14.10;77.20;;;;;;4152266;28;20538;-84
2023/09/23 08:13:34;;;;;;;;;;;14.20;77.00;;;;;;4168681;28;19920;-84
2023/09/23 08:15:35;;;;;;;;;;;14.20;77.30;;;;;;4161839;28;19921;-84
2023/09/23 08:17:36;;;;;;;;;;;14.10;77.10;;;;;;4161717;28;19921;-83
2023/09/23 08:19:37;;;;;;;;;;;14.20;77.30;;;;;;4140456;28;19956;-83
2023/09/23 08:21:37;;;;;;;;;;;14.20;77.20;;;;;;4173900;28;19931;-84
2023/09/23 08:23:38;;;;;;;;;;;14.30;77.00;;;;;;4171400;28;20046;-84
2023/09/23 08:25:39;;;;;;;;;;;14.20;76.90;;;;;;4143999;28;20719;-85
2023/09/23 08:27:41;;;;;;;;;;;14.20;77.10;;;;;;4168068;28;20075;-84
2023/09/23 08:29:41;;;;;;;;;;;14.20;77.10;;;;;;4157140;28;20401;-84
2023/09/23 08:31:42;;;;;;;;;;;14.20;77.20;;;;;;4161018;28;19927;-85
2023/09/23 08:33:45;;;;;;;;;;;14.30;77.30;;;;;;4138982;28;20023;-85
2023/09/23 08:35:47;;;;;;;;;;;14.30;77.00;;;;;;4170267;28;19928;-85
2023/09/23 08:37:48;;;;;;;;;;;14.30;77.10;;;;;;4154925;28;20430;-84
2023/09/23 08:39:48;;;;;;;;;;;14.30;76.70;;;;;;4165586;28;19963;-84
2023/09/23 08:41:53;;;;;;;;;;;14.30;76.60;;;;;;4172853;28;20439;-85
2023/09/23 08:43:58;;;;;;;;;;;14.30;76.70;;;;;;4170705;28;20318;-85
2023/09/23 08:45:58;;;;;;;;;;;14.30;76.70;;;;;;4152450;28;20663;-85
2023/09/23 08:48:00;;;;;;;;;;;14.30;76.70;;;;;;4153671;28;19925;-86
2023/09/23 08:50:01;;;;;;;;;;;14.40;76.70;;;;;;4171985;28;19963;-85
2023/09/23 08:52:03;;;;;;;;;;;14.50;77.20;;;;;;4151481;28;19983;-85
2023/09/23 08:54:03;;;;;;;;;;;14.40;77.40;;;;;;4170810;28;20337;-85
2023/09/23 08:56:08;;;;;;;;;;;14.50;77.30;;;;;;4171898;28;19913;-86
2023/09/23 08:58:08;;;;;;;;;;;14.50;77.30;;;;;;4171036;28;19931;-85
2023/09/23 09:00:13;;;;;;;;;;;14.50;77.60;;;;;;4154928;28;20645;-86
2023/09/23 09:02:21;;;;;;;;;;;14.60;77.40;;;;;;4152802;28;19921;-85
2023/09/23 09:04:23;;;;;;;;;;;14.60;77.00;;;;;;4137293;28;20437;-86
2023/09/23 09:06:29;;;;;;;;;;;14.70;77.30;;;;;;4172156;28;19983;-85
2023/09/23 09:08:32;;;;;;;;;;;14.70;76.70;;;;;;4157570;28;19941;-85
2023/09/23 09:10:33;;;;;;;;;;;14.70;76.50;;;;;;4141169;28;19922;-85
2023/09/23 09:12:34;;;;;;;;;;;14.70;76.40;;;;;;4174371;28;20006;-85
2023/09/23 09:14:35;;;;;;;;;;;14.80;76.30;;;;;;4171634;28;19928;-85
2023/09/23 09:16:35;;;;;;;;;;;14.90;76.20;;;;;;4158066;28;19921;-84
2023/09/23 09:18:36;;;;;;;;;;;14.90;76.30;;;;;;4156522;28;19933;-85
2023/09/23 09:20:37;;;;;;;;;;;14.90;76.10;;;;;;4176151;28;19956;-83
2023/09/23 09:22:39;;;;;;;;;;;15.10;76.30;;;;;;4163172;28;19932;-84
2023/09/23 09:24:40;;;;;;;;;;;15.10;76.10;;;;;;4161306;28;20325;-85
2023/09/23 09:26:40;;;;;;;;;;;15.10;76.00;;;;;;4171693;28;20362;-84
2023/09/23 09:28:41;;;;;;;;;;;15.20;75.90;;;;;;4156769;28;19917;-84
2023/09/23 09:30:42;;;;;;;;;;;15.30;75.90;;;;;;4173083;28;19917;-86
2023/09/23 09:32:44;;;;;;;;;;;15.30;75.70;;;;;;4175755;28;19917;-84
2023/09/23 09:34:45;;;;;;;;;;;15.40;76.00;;;;;;4172938;28;20396;-85
2023/09/23 09:36:53;;;;;;;;;;;15.40;76.20;;;;;;4176099;28;20389;-85
2023/09/23 09:38:54;;;;;;;;;;;15.40;76.10;;;;;;4174161;28;19916;-83
2023/09/23 09:40:59;;;;;;;;;;;15.50;76.20;;;;;;4167934;28;20368;-84
2023/09/23 09:43:01;;;;;;;;;;;15.60;75.90;;;;;;4166085;28;19917;-84
2023/09/23 09:45:03;;;;;;;;;;;15.60;75.80;;;;;;4164092;28;19951;-85
2023/09/23 09:47:04;;;;;;;;;;;15.70;75.90;;;;;;4153813;28;20299;-84
2023/09/23 09:49:06;;;;;;;;;;;15.90;76.00;;;;;;4153220;28;19913;-84
2023/09/23 09:51:07;;;;;;;;;;;15.90;75.30;;;;;;4172656;28;19921;-84
2023/09/23 09:53:08;;;;;;;;;;;15.90;75.20;;;;;;4155749;28;19921;-85
2023/09/23 09:55:09;;;;;;;;;;;15.90;75.10;;;;;;4134625;28;19929;-85
2023/09/23 09:57:12;;;;;;;;;;;16.10;74.80;;;;;;4170540;28;20011;-85
2023/09/23 09:59:29;;;;;;;;;;;16.10;74.60;;;;;;4169212;28;20367;-84
2023/09/23 10:01:30;;;;;;;;;;;16.20;74.20;;;;;;4171606;28;20278;-84
2023/09/23 10:03:30;;;;;;;;;;;16.20;74.20;;;;;;4172804;28;19916;-85
2023/09/23 10:05:35;;;;;;;;;;;16.20;73.80;;;;;;4153423;28;20519;-85
2023/09/23 10:07:53;;;;;;;;;;;16.30;74.10;;;;;;4166337;28;20003;-84
2023/09/23 10:09:58;;;;;;;;;;;16.40;73.60;;;;;;4152026;28;19913;-85
2023/09/23 10:12:01;;;;;;;;;;;16.50;74.40;;;;;;4173336;28;19917;-86
2023/09/23 10:14:16;;;;;;;;;;;16.50;74.30;;;;;;4158921;28;19913;-84
2023/09/23 10:16:20;;;;;;;;;;;16.60;74.40;;;;;;4170760;28;19912;-85
2023/09/23 10:18:20;;;;;;;;;;;16.70;73.90;;;;;;4171470;28;19971;-85
2023/09/23 10:20:24;;;;;;;;;;;16.90;73.60;;;;;;4155418;28;20417;-84
2023/09/23 10:22:28;;;;;;;;;;;16.90;73.00;;;;;;4156437;28;20012;-84
2023/09/23 10:24:32;;;;;;;;;;;17.00;72.90;;;;;;4171025;28;19916;-86
2023/09/23 10:26:32;;;;;;;;;;;17.10;72.10;;;;;;4170965;28;19918;-85
2023/09/23 10:28:34;;;;;;;;;;;17.20;71.50;;;;;;4170419;28;20694;-85
2023/09/23 10:30:35;;;;;;;;;;;17.30;70.40;;;;;;4177374;28;19901;-85
2023/09/23 10:32:35;;;;;;;;;;;17.30;70.70;;;;;;4190049;28;19917;-82
2023/09/23 10:34:43;;;;;;;;;;;17.30;69.90;;;;;;4198835;28;19916;-85
2023/09/23 10:36:48;;;;;;;;;;;17.40;69.80;;;;;;4176826;28;19931;-85
2023/09/23 10:38:50;;;;;;;;;;;17.40;68.80;;;;;;4163827;28;19927;-86
2023/09/23 10:40:54;;;;;;;;;;;17.50;67.90;;;;;;4170357;28;19920;-86
2023/09/23 10:43:03;;;;;;;;;;;17.40;67.50;;;;;;4171076;28;19940;-85
2023/09/23 10:45:04;;;;;;;;;;;17.50;67.80;;;;;;4173963;28;19913;-85
2023/09/23 10:47:05;;;;;;;;;;;17.50;68.40;;;;;;4154016;28;19917;-85
2023/09/23 10:49:06;;;;;;;;;;;17.50;68.50;;;;;;4160220;28;19924;-83
2023/09/23 10:51:08;;;;;;;;;;;17.60;68.40;;;;;;4172251;28;19928;-86
2023/09/23 10:53:09;;;;;;;;;;;17.60;68.00;;;;;;4135985;28;19924;-84
2023/09/23 10:55:10;;;;;;;;;;;17.70;68.50;;;;;;4166685;28;20383;-85
2023/09/23 10:57:12;;;;;;;;;;;17.70;68.20;;;;;;4154399;28;19921;-85
2023/09/23 10:59:13;;;;;;;;;;;17.80;68.40;;;;;;4170550;28;19924;-86
2023/09/23 11:01:14;;;;;;;;;;;17.90;67.90;;;;;;4170825;28;20559;-85
2023/09/23 11:03:16;;;;;;;;;;;17.90;67.80;;;;;;4152179;28;19917;-85
2023/09/23 11:05:18;;;;;;;;;;;17.90;66.60;;;;;;4157508;28;20074;-86
2023/09/23 11:07:20;;;;;;;;;;;17.90;65.80;;;;;;4174203;28;19923;-84
2023/09/23 11:09:22;;;;;;;;;;;17.90;64.70;;;;;;4157624;28;19952;-86
2023/09/23 11:11:22;;;;;;;;;;;17.90;63.80;;;;;;4176969;28;19932;-86
2023/09/23 11:13:25;;;;;;;;;;;17.90;64.10;;;;;;4155872;28;20414;-85
2023/09/23 11:15:25;;;;;;;;;;;17.90;63.80;;;;;;4173891;28;20170;-85
2023/09/23 11:17:29;;;;;;;;;;;18.00;64.70;;;;;;4158815;28;19918;-86
2023/09/23 11:19:30;;;;;;;;;;;17.90;64.80;;;;;;4159898;28;19970;-85
2023/09/23 11:21:30;;;;;;;;;;;17.90;65.00;;;;;;4153841;28;19979;-85
2023/09/23 11:23:32;;;;;;;;;;;17.90;65.30;;;;;;4157062;28;19943;-86
2023/09/23 11:25:36;;;;;;;;;;;17.90;65.20;;;;;;4140096;28;19921;-85
2023/09/23 11:27:37;;;;;;;;;;;17.90;64.60;;;;;;4156325;28;19925;-85
2023/09/23 11:29:38;;;;;;;;;;;17.80;64.60;;;;;;4154679;28;19917;-86
2023/09/23 11:31:42;;;;;;;;;;;17.80;64.30;;;;;;4169602;28;20393;-86
2023/09/23 11:33:43;;;;;;;;;;;17.80;64.70;;;;;;4177519;28;19913;-84
2023/09/23 11:35:44;;;;;;;;;;;17.90;65.80;;;;;;4156111;28;19996;-86
2023/09/23 11:37:46;;;;;;;;;;;17.80;66.10;;;;;;4171638;28;19956;-85
2023/09/23 11:39:47;;;;;;;;;;;17.80;66.40;;;;;;4171984;28;19924;-87
2023/09/23 11:41:57;;;;;;;;;;;17.80;66.50;;;;;;4133917;28;19917;-85
2023/09/23 11:43:57;;;;;;;;;;;17.80;66.40;;;;;;4168643;28;19917;-86
2023/09/23 11:46:00;;;;;;;;;;;17.90;66.40;;;;;;4139260;28;20031;-86
2023/09/23 11:50:18;;;;;;;;;;;17.90;66.30;;;;;;4183728;28;20372;-84
2023/09/23 11:52:19;;;;;;;;;;;17.90;65.70;;;;;;4186118;28;19913;-83
2023/09/23 11:54:20;;;;;;;;;;;17.90;66.00;;;;;;4168305;28;19912;-84
2023/09/23 11:56:36;;;;;;;;;;;17.90;65.90;;;;;;4189494;28;20286;-87
2023/09/23 11:58:36;;;;;;;;;;;18.00;65.20;;;;;;4158394;28;20361;-86
2023/09/23 12:00:38;;;;;;;;;;;18.00;65.30;;;;;;4154733;28;19913;-86
2023/09/23 12:02:42;;;;;;;;;;;18.00;64.70;;;;;;4189825;28;19920;-84
2023/09/23 12:04:51;;;;;;;;;;;18.00;64.30;;;;;;4169669;28;19921;-85
2023/09/23 12:06:52;;;;;;;;;;;18.00;64.30;;;;;;4158352;28;20027;-84
2023/09/23 12:08:53;;;;;;;;;;;17.90;62.40;;;;;;4172041;28;19923;-85
2023/09/23 12:10:55;;;;;;;;;;;17.90;61.20;;;;;;4173821;28;19956;-85
2023/09/23 12:13:02;;;;;;;;;;;17.80;60.00;;;;;;4186161;28;20399;-85
2023/09/23 12:15:04;;;;;;;;;;;17.70;60.00;;;;;;4168697;28;20014;-86
2023/09/23 12:17:06;;;;;;;;;;;17.70;61.70;;;;;;4145608;28;20533;-85
2023/09/23 12:19:07;;;;;;;;;;;17.60;61.20;;;;;;4185488;28;19918;-84
2023/09/23 12:21:07;;;;;;;;;;;17.50;60.70;;;;;;4171022;28;20390;-81
2023/09/23 12:23:08;;;;;;;;;;;17.40;59.40;;;;;;4183092;28;19917;-84
2023/09/23 12:25:11;;;;;;;;;;;17.30;59.70;;;;;;4169966;28;19974;-84
2023/09/23 12:27:14;;;;;;;;;;;17.20;60.60;;;;;;4192973;28;19951;-83
2023/09/23 12:29:35;;;;;;;;;;;17.10;60.20;;;;;;4190275;28;19923;-84
2023/09/23 12:31:37;;;;;;;;;;;17.00;60.30;;;;;;4172366;28;19943;-84
2023/09/23 12:33:44;;;;;;;;;;;16.90;60.40;;;;;;4163407;28;19931;-83
2023/09/23 12:35:58;;;;;;;;;;;16.80;60.80;;;;;;4192879;28;20770;-83
2023/09/23 12:38:19;;;;;;;;;;;16.70;61.50;;;;;;4189306;28;19924;-84
2023/09/23 12:40:36;;;;;;;;;;;16.60;62.10;;;;;;4179910;28;19928;-84
2023/09/23 12:42:56;;;;;;;;;;;16.50;62.50;;;;;;4178673;28;19917;-83